sensor_id;sensor_type;location;lat;lon;timestamp;P1;durP1;ratioP1;P2;durP2;ratioP2
4244;SDS011;2136;48.502;9.194;2022-12-16T00:01:54;42.35;;;22.73;;
4244;SDS011;2136;48.502;9.194;2022-12-16T00:04:23;46.00;;;24.60;;
4244;SDS011;2136;48.502;9.194;2022-12-16T00:06:50;46.97;;;22.95;;
4244;SDS011;2136;48.502;9.194;2022-12-16T00:09:17;44.57;;;22.57;;
4244;SDS011;2136;48.502;9.194;2022-12-16T00:11:44;44.47;;;22.97;;
4244;SDS011;2136;48.502;9.194;2022-12-16T00:14:11;45.58;;;22.95;;
4244;SDS011;2136;48.502;9.194;2022-12-16T00:16:38;40.28;;;22.98;;
4244;SDS011;2136;48.502;9.194;2022-12-16T00:19:05;47.70;;;23.92;;
4244;SDS011;2136;48.502;9.194;2022-12-16T00:21:33;39.90;;;22.42;;
4244;SDS011;2136;48.502;9.194;2022-12-16T00:24:00;43.22;;;23.50;;
4244;SDS011;2136;48.502;9.194;2022-12-16T00:26:27;47.42;;;22.65;;
4244;SDS011;2136;48.502;9.194;2022-12-16T00:28:55;44.45;;;23.40;;
4244;SDS011;2136;48.502;9.194;2022-12-16T00:31:22;40.05;;;21.80;;
4244;SDS011;2136;48.502;9.194;2022-12-16T00:33:49;42.13;;;23.15;;
4244;SDS011;2136;48.502;9.194;2022-12-16T00:36:17;44.70;;;22.03;;
4244;SDS011;2136;48.502;9.194;2022-12-16T00:38:45;48.50;;;23.42;;
4244;SDS011;2136;48.502;9.194;2022-12-16T00:41:11;42.57;;;23.80;;
4244;SDS011;2136;48.502;9.194;2022-12-16T00:43:38;44.92;;;23.60;;
4244;SDS011;2136;48.502;9.194;2022-12-16T00:46:05;41.70;;;23.10;;
4244;SDS011;2136;48.502;9.194;2022-12-16T00:48:32;49.92;;;23.42;;
4244;SDS011;2136;48.502;9.194;2022-12-16T00:50:59;45.10;;;22.30;;
4244;SDS011;2136;48.502;9.194;2022-12-16T00:53:26;42.47;;;22.23;;
4244;SDS011;2136;48.502;9.194;2022-12-16T00:56:01;46.58;;;23.73;;
4244;SDS011;2136;48.502;9.194;2022-12-16T00:58:29;43.10;;;22.63;;
4244;SDS011;2136;48.502;9.194;2022-12-16T01:00:55;44.42;;;22.65;;
4244;SDS011;2136;48.502;9.194;2022-12-16T01:03:22;41.85;;;23.23;;
4244;SDS011;2136;48.502;9.194;2022-12-16T01:05:49;45.10;;;23.60;;
4244;SDS011;2136;48.502;9.194;2022-12-16T01:08:16;47.40;;;23.05;;
4244;SDS011;2136;48.502;9.194;2022-12-16T01:10:48;39.83;;;21.55;;
4244;SDS011;2136;48.502;9.194;2022-12-16T01:13:16;44.08;;;23.42;;
4244;SDS011;2136;48.502;9.194;2022-12-16T01:15:43;43.03;;;22.52;;
4244;SDS011;2136;48.502;9.194;2022-12-16T01:18:10;41.42;;;23.20;;
4244;SDS011;2136;48.502;9.194;2022-12-16T01:20:37;40.55;;;24.00;;
4244;SDS011;2136;48.502;9.194;2022-12-16T01:23:04;47.78;;;24.77;;
4244;SDS011;2136;48.502;9.194;2022-12-16T01:25:31;39.28;;;21.25;;
4244;SDS011;2136;48.502;9.194;2022-12-16T01:27:57;48.92;;;23.35;;
4244;SDS011;2136;48.502;9.194;2022-12-16T01:30:25;49.47;;;24.65;;
4244;SDS011;2136;48.502;9.194;2022-12-16T01:32:52;51.70;;;24.77;;
4244;SDS011;2136;48.502;9.194;2022-12-16T01:35:19;43.55;;;23.35;;
4244;SDS011;2136;48.502;9.194;2022-12-16T01:37:46;45.30;;;23.95;;
4244;SDS011;2136;48.502;9.194;2022-12-16T01:40:14;45.10;;;24.27;;
4244;SDS011;2136;48.502;9.194;2022-12-16T01:42:43;43.50;;;23.00;;
4244;SDS011;2136;48.502;9.194;2022-12-16T01:45:21;45.22;;;22.58;;
4244;SDS011;2136;48.502;9.194;2022-12-16T01:47:59;46.03;;;23.40;;
4244;SDS011;2136;48.502;9.194;2022-12-16T01:50:28;48.78;;;26.15;;
4244;SDS011;2136;48.502;9.194;2022-12-16T01:52:56;44.10;;;24.77;;
4244;SDS011;2136;48.502;9.194;2022-12-16T01:55:27;45.05;;;24.63;;
4244;SDS011;2136;48.502;9.194;2022-12-16T01:57:58;48.60;;;25.40;;
4244;SDS011;2136;48.502;9.194;2022-12-16T02:00:27;48.03;;;24.65;;
4244;SDS011;2136;48.502;9.194;2022-12-16T02:02:55;46.53;;;25.45;;
4244;SDS011;2136;48.502;9.194;2022-12-16T02:05:23;40.38;;;23.08;;
4244;SDS011;2136;48.502;9.194;2022-12-16T02:07:52;54.92;;;28.73;;
4244;SDS011;2136;48.502;9.194;2022-12-16T02:10:24;49.78;;;25.65;;
4244;SDS011;2136;48.502;9.194;2022-12-16T02:13:08;48.28;;;25.08;;
4244;SDS011;2136;48.502;9.194;2022-12-16T02:15:48;46.78;;;25.63;;
4244;SDS011;2136;48.502;9.194;2022-12-16T02:18:26;45.25;;;24.45;;
4244;SDS011;2136;48.502;9.194;2022-12-16T02:21:17;50.63;;;24.92;;
4244;SDS011;2136;48.502;9.194;2022-12-16T02:24:05;53.03;;;26.73;;
4244;SDS011;2136;48.502;9.194;2022-12-16T02:27:15;45.08;;;23.20;;
4244;SDS011;2136;48.502;9.194;2022-12-16T02:33:21;58.00;;;28.33;;
4244;SDS011;2136;48.502;9.194;2022-12-16T02:36:07;66.97;;;25.55;;
4244;SDS011;2136;48.502;9.194;2022-12-16T02:38:45;42.20;;;25.00;;
4244;SDS011;2136;48.502;9.194;2022-12-16T02:41:16;49.08;;;24.83;;
4244;SDS011;2136;48.502;9.194;2022-12-16T02:43:49;48.15;;;25.67;;
4244;SDS011;2136;48.502;9.194;2022-12-16T02:46:20;46.42;;;25.13;;
4244;SDS011;2136;48.502;9.194;2022-12-16T02:48:50;45.30;;;25.30;;
4244;SDS011;2136;48.502;9.194;2022-12-16T02:51:16;53.47;;;24.50;;
4244;SDS011;2136;48.502;9.194;2022-12-16T02:53:44;48.42;;;25.67;;
4244;SDS011;2136;48.502;9.194;2022-12-16T02:56:15;45.35;;;24.55;;
4244;SDS011;2136;48.502;9.194;2022-12-16T02:58:51;62.00;;;25.23;;
4244;SDS011;2136;48.502;9.194;2022-12-16T03:01:29;52.80;;;26.15;;
4244;SDS011;2136;48.502;9.194;2022-12-16T03:04:01;46.60;;;23.65;;
4244;SDS011;2136;48.502;9.194;2022-12-16T03:06:30;45.90;;;25.70;;
4244;SDS011;2136;48.502;9.194;2022-12-16T03:09:01;46.40;;;25.43;;
4244;SDS011;2136;48.502;9.194;2022-12-16T03:11:32;51.13;;;27.05;;
4244;SDS011;2136;48.502;9.194;2022-12-16T03:13:59;49.40;;;25.60;;
4244;SDS011;2136;48.502;9.194;2022-12-16T03:16:32;47.63;;;25.17;;
4244;SDS011;2136;48.502;9.194;2022-12-16T03:19:00;50.88;;;27.00;;
4244;SDS011;2136;48.502;9.194;2022-12-16T03:21:31;57.72;;;27.95;;
4244;SDS011;2136;48.502;9.194;2022-12-16T03:24:02;46.72;;;26.58;;
4244;SDS011;2136;48.502;9.194;2022-12-16T03:26:34;56.35;;;26.27;;
4244;SDS011;2136;48.502;9.194;2022-12-16T03:29:09;51.70;;;26.63;;
4244;SDS011;2136;48.502;9.194;2022-12-16T03:31:42;48.78;;;26.48;;
4244;SDS011;2136;48.502;9.194;2022-12-16T03:34:12;45.00;;;25.27;;
4244;SDS011;2136;48.502;9.194;2022-12-16T03:36:44;53.72;;;26.73;;
4244;SDS011;2136;48.502;9.194;2022-12-16T03:39:17;42.65;;;24.83;;
4244;SDS011;2136;48.502;9.194;2022-12-16T03:41:47;42.05;;;24.10;;
4244;SDS011;2136;48.502;9.194;2022-12-16T03:44:18;41.85;;;23.70;;
4244;SDS011;2136;48.502;9.194;2022-12-16T03:46:50;48.10;;;23.17;;
4244;SDS011;2136;48.502;9.194;2022-12-16T03:49:17;53.67;;;23.58;;
4244;SDS011;2136;48.502;9.194;2022-12-16T03:51:44;56.78;;;25.73;;
4244;SDS011;2136;48.502;9.194;2022-12-16T03:54:11;50.90;;;26.27;;
4244;SDS011;2136;48.502;9.194;2022-12-16T03:56:38;48.88;;;23.98;;
4244;SDS011;2136;48.502;9.194;2022-12-16T03:59:04;45.60;;;23.42;;
4244;SDS011;2136;48.502;9.194;2022-12-16T04:01:31;39.55;;;21.08;;
4244;SDS011;2136;48.502;9.194;2022-12-16T04:03:59;45.85;;;23.52;;
4244;SDS011;2136;48.502;9.194;2022-12-16T04:06:26;38.90;;;22.48;;
4244;SDS011;2136;48.502;9.194;2022-12-16T04:08:53;44.60;;;24.70;;
4244;SDS011;2136;48.502;9.194;2022-12-16T04:11:20;47.72;;;25.77;;
4244;SDS011;2136;48.502;9.194;2022-12-16T04:14:04;41.78;;;23.30;;
4244;SDS011;2136;48.502;9.194;2022-12-16T04:16:48;43.00;;;23.80;;
4244;SDS011;2136;48.502;9.194;2022-12-16T04:19:31;42.38;;;22.05;;
4244;SDS011;2136;48.502;9.194;2022-12-16T04:22:19;40.20;;;22.92;;
4244;SDS011;2136;48.502;9.194;2022-12-16T04:25:07;44.92;;;22.92;;
4244;SDS011;2136;48.502;9.194;2022-12-16T04:27:37;38.92;;;21.73;;
4244;SDS011;2136;48.502;9.194;2022-12-16T04:30:04;41.97;;;23.73;;
4244;SDS011;2136;48.502;9.194;2022-12-16T04:32:44;41.50;;;20.63;;
4244;SDS011;2136;48.502;9.194;2022-12-16T04:35:30;46.22;;;22.45;;
4244;SDS011;2136;48.502;9.194;2022-12-16T04:38:14;38.60;;;21.30;;
4244;SDS011;2136;48.502;9.194;2022-12-16T04:40:58;36.40;;;20.65;;
4244;SDS011;2136;48.502;9.194;2022-12-16T04:43:42;43.38;;;22.65;;
4244;SDS011;2136;48.502;9.194;2022-12-16T04:46:27;51.80;;;22.50;;
4244;SDS011;2136;48.502;9.194;2022-12-16T04:49:11;38.85;;;21.63;;
4244;SDS011;2136;48.502;9.194;2022-12-16T04:51:56;42.88;;;21.60;;
4244;SDS011;2136;48.502;9.194;2022-12-16T04:54:40;45.35;;;22.00;;
4244;SDS011;2136;48.502;9.194;2022-12-16T04:57:25;43.05;;;21.83;;
4244;SDS011;2136;48.502;9.194;2022-12-16T05:00:09;43.05;;;21.52;;
4244;SDS011;2136;48.502;9.194;2022-12-16T05:02:55;40.72;;;23.50;;
4244;SDS011;2136;48.502;9.194;2022-12-16T05:05:39;40.80;;;22.75;;
4244;SDS011;2136;48.502;9.194;2022-12-16T05:08:24;46.60;;;23.25;;
4244;SDS011;2136;48.502;9.194;2022-12-16T05:11:09;46.13;;;21.65;;
4244;SDS011;2136;48.502;9.194;2022-12-16T05:14:04;42.90;;;23.50;;
4244;SDS011;2136;48.502;9.194;2022-12-16T05:16:48;39.15;;;20.67;;
4244;SDS011;2136;48.502;9.194;2022-12-16T05:19:33;34.88;;;21.58;;
4244;SDS011;2136;48.502;9.194;2022-12-16T05:22:17;38.63;;;20.58;;
4244;SDS011;2136;48.502;9.194;2022-12-16T05:25:03;41.40;;;22.30;;
4244;SDS011;2136;48.502;9.194;2022-12-16T05:27:49;40.95;;;21.60;;
4244;SDS011;2136;48.502;9.194;2022-12-16T05:30:33;45.17;;;22.80;;
4244;SDS011;2136;48.502;9.194;2022-12-16T05:33:17;42.47;;;22.33;;
4244;SDS011;2136;48.502;9.194;2022-12-16T05:36:01;46.47;;;20.90;;
4244;SDS011;2136;48.502;9.194;2022-12-16T05:38:46;39.20;;;20.85;;
4244;SDS011;2136;48.502;9.194;2022-12-16T05:41:31;42.80;;;22.63;;
4244;SDS011;2136;48.502;9.194;2022-12-16T05:44:15;43.58;;;24.13;;
4244;SDS011;2136;48.502;9.194;2022-12-16T05:47:00;53.63;;;27.38;;
4244;SDS011;2136;48.502;9.194;2022-12-16T05:49:44;49.10;;;26.85;;
4244;SDS011;2136;48.502;9.194;2022-12-16T05:52:30;48.17;;;22.88;;
4244;SDS011;2136;48.502;9.194;2022-12-16T05:55:15;48.42;;;21.88;;
4244;SDS011;2136;48.502;9.194;2022-12-16T05:58:00;51.78;;;24.63;;
4244;SDS011;2136;48.502;9.194;2022-12-16T06:00:44;42.13;;;22.23;;
4244;SDS011;2136;48.502;9.194;2022-12-16T06:03:29;43.58;;;23.75;;
4244;SDS011;2136;48.502;9.194;2022-12-16T06:06:13;49.88;;;25.15;;
4244;SDS011;2136;48.502;9.194;2022-12-16T06:08:57;49.40;;;23.50;;
4244;SDS011;2136;48.502;9.194;2022-12-16T06:11:41;48.95;;;23.60;;
4244;SDS011;2136;48.502;9.194;2022-12-16T06:14:27;40.67;;;23.63;;
4244;SDS011;2136;48.502;9.194;2022-12-16T06:17:11;42.80;;;23.27;;
4244;SDS011;2136;48.502;9.194;2022-12-16T06:19:55;42.45;;;24.00;;
4244;SDS011;2136;48.502;9.194;2022-12-16T06:22:39;40.50;;;22.60;;
4244;SDS011;2136;48.502;9.194;2022-12-16T06:25:23;42.42;;;22.55;;
4244;SDS011;2136;48.502;9.194;2022-12-16T06:28:08;55.90;;;24.65;;
4244;SDS011;2136;48.502;9.194;2022-12-16T06:30:53;49.55;;;26.90;;
4244;SDS011;2136;48.502;9.194;2022-12-16T06:33:37;45.00;;;24.85;;
4244;SDS011;2136;48.502;9.194;2022-12-16T06:36:27;49.10;;;24.17;;
4244;SDS011;2136;48.502;9.194;2022-12-16T06:39:11;48.67;;;25.15;;
4244;SDS011;2136;48.502;9.194;2022-12-16T06:41:55;44.95;;;25.35;;
4244;SDS011;2136;48.502;9.194;2022-12-16T06:44:39;43.35;;;23.73;;
4244;SDS011;2136;48.502;9.194;2022-12-16T06:47:25;42.13;;;24.80;;
4244;SDS011;2136;48.502;9.194;2022-12-16T06:50:18;49.58;;;24.85;;
4244;SDS011;2136;48.502;9.194;2022-12-16T06:53:02;46.05;;;25.08;;
4244;SDS011;2136;48.502;9.194;2022-12-16T06:55:46;43.67;;;24.05;;
4244;SDS011;2136;48.502;9.194;2022-12-16T06:58:30;41.70;;;23.45;;
4244;SDS011;2136;48.502;9.194;2022-12-16T07:01:14;45.40;;;23.98;;
4244;SDS011;2136;48.502;9.194;2022-12-16T07:04:00;51.25;;;25.05;;
4244;SDS011;2136;48.502;9.194;2022-12-16T07:06:46;46.85;;;24.80;;
4244;SDS011;2136;48.502;9.194;2022-12-16T07:09:31;47.00;;;23.67;;
4244;SDS011;2136;48.502;9.194;2022-12-16T07:12:15;50.83;;;25.17;;
4244;SDS011;2136;48.502;9.194;2022-12-16T07:14:59;60.70;;;25.00;;
4244;SDS011;2136;48.502;9.194;2022-12-16T07:17:43;49.45;;;24.85;;
4244;SDS011;2136;48.502;9.194;2022-12-16T07:20:29;46.53;;;24.55;;
4244;SDS011;2136;48.502;9.194;2022-12-16T07:23:13;45.70;;;25.65;;
4244;SDS011;2136;48.502;9.194;2022-12-16T07:25:57;41.50;;;22.67;;
4244;SDS011;2136;48.502;9.194;2022-12-16T07:28:41;40.95;;;21.17;;
4244;SDS011;2136;48.502;9.194;2022-12-16T07:31:25;41.97;;;21.63;;
4244;SDS011;2136;48.502;9.194;2022-12-16T07:34:10;44.72;;;22.25;;
4244;SDS011;2136;48.502;9.194;2022-12-16T07:36:55;39.60;;;20.90;;
4244;SDS011;2136;48.502;9.194;2022-12-16T07:39:39;42.85;;;21.58;;
4244;SDS011;2136;48.502;9.194;2022-12-16T07:42:20;36.85;;;20.30;;
4244;SDS011;2136;48.502;9.194;2022-12-16T07:45:07;36.15;;;19.80;;
4244;SDS011;2136;48.502;9.194;2022-12-16T07:47:52;35.17;;;19.98;;
4244;SDS011;2136;48.502;9.194;2022-12-16T07:50:36;43.10;;;20.25;;
4244;SDS011;2136;48.502;9.194;2022-12-16T07:53:21;38.97;;;20.23;;
4244;SDS011;2136;48.502;9.194;2022-12-16T07:56:06;37.88;;;20.33;;
4244;SDS011;2136;48.502;9.194;2022-12-16T07:59:05;35.90;;;18.67;;
4244;SDS011;2136;48.502;9.194;2022-12-16T08:01:49;36.83;;;21.90;;
4244;SDS011;2136;48.502;9.194;2022-12-16T08:04:34;35.97;;;19.23;;
4244;SDS011;2136;48.502;9.194;2022-12-16T08:07:18;36.92;;;18.75;;
4244;SDS011;2136;48.502;9.194;2022-12-16T08:10:04;34.92;;;17.75;;
4244;SDS011;2136;48.502;9.194;2022-12-16T08:12:49;32.05;;;18.40;;
4244;SDS011;2136;48.502;9.194;2022-12-16T08:15:33;30.63;;;17.35;;
4244;SDS011;2136;48.502;9.194;2022-12-16T08:18:17;32.05;;;18.00;;
4244;SDS011;2136;48.502;9.194;2022-12-16T08:21:01;31.58;;;17.27;;
4244;SDS011;2136;48.502;9.194;2022-12-16T08:23:45;38.63;;;18.77;;
4244;SDS011;2136;48.502;9.194;2022-12-16T08:26:31;30.20;;;16.20;;
4244;SDS011;2136;48.502;9.194;2022-12-16T08:29:15;29.50;;;16.63;;
4244;SDS011;2136;48.502;9.194;2022-12-16T08:31:59;34.85;;;18.85;;
4244;SDS011;2136;48.502;9.194;2022-12-16T08:34:44;35.65;;;19.92;;
4244;SDS011;2136;48.502;9.194;2022-12-16T08:37:28;38.17;;;21.27;;
4244;SDS011;2136;48.502;9.194;2022-12-16T08:40:12;35.10;;;19.02;;
4244;SDS011;2136;48.502;9.194;2022-12-16T08:42:58;35.83;;;16.17;;
4244;SDS011;2136;48.502;9.194;2022-12-16T08:45:42;33.20;;;19.40;;
4244;SDS011;2136;48.502;9.194;2022-12-16T08:48:26;28.48;;;18.40;;
4244;SDS011;2136;48.502;9.194;2022-12-16T08:51:11;26.45;;;15.05;;
4244;SDS011;2136;48.502;9.194;2022-12-16T08:54:00;27.38;;;15.75;;
4244;SDS011;2136;48.502;9.194;2022-12-16T08:56:45;26.48;;;14.73;;
4244;SDS011;2136;48.502;9.194;2022-12-16T08:59:30;24.40;;;13.85;;
4244;SDS011;2136;48.502;9.194;2022-12-16T09:02:14;22.23;;;13.10;;
4244;SDS011;2136;48.502;9.194;2022-12-16T09:04:58;25.63;;;14.10;;
4244;SDS011;2136;48.502;9.194;2022-12-16T09:07:43;25.00;;;14.07;;
4244;SDS011;2136;48.502;9.194;2022-12-16T09:10:27;24.35;;;14.38;;
4244;SDS011;2136;48.502;9.194;2022-12-16T09:13:12;27.02;;;14.43;;
4244;SDS011;2136;48.502;9.194;2022-12-16T09:15:59;23.08;;;13.00;;
4244;SDS011;2136;48.502;9.194;2022-12-16T09:18:44;20.63;;;13.30;;
4244;SDS011;2136;48.502;9.194;2022-12-16T09:21:28;25.55;;;12.70;;
4244;SDS011;2136;48.502;9.194;2022-12-16T09:24:12;27.42;;;14.63;;
4244;SDS011;2136;48.502;9.194;2022-12-16T09:26:57;29.27;;;14.27;;
4244;SDS011;2136;48.502;9.194;2022-12-16T09:29:41;27.83;;;14.48;;
4244;SDS011;2136;48.502;9.194;2022-12-16T09:32:27;33.50;;;13.85;;
4244;SDS011;2136;48.502;9.194;2022-12-16T09:35:13;24.92;;;14.73;;
4244;SDS011;2136;48.502;9.194;2022-12-16T09:37:57;30.77;;;15.90;;
4244;SDS011;2136;48.502;9.194;2022-12-16T09:40:41;24.63;;;14.70;;
4244;SDS011;2136;48.502;9.194;2022-12-16T09:43:33;26.33;;;15.88;;
4244;SDS011;2136;48.502;9.194;2022-12-16T09:46:28;35.28;;;17.20;;
4244;SDS011;2136;48.502;9.194;2022-12-16T09:49:22;19.98;;;11.52;;
4244;SDS011;2136;48.502;9.194;2022-12-16T09:52:14;22.90;;;12.07;;
4244;SDS011;2136;48.502;9.194;2022-12-16T09:55:01;23.42;;;12.52;;
4244;SDS011;2136;48.502;9.194;2022-12-16T09:57:48;21.02;;;12.88;;
4244;SDS011;2136;48.502;9.194;2022-12-16T10:00:32;25.48;;;12.43;;
4244;SDS011;2136;48.502;9.194;2022-12-16T10:03:20;23.60;;;13.67;;
4244;SDS011;2136;48.502;9.194;2022-12-16T10:06:08;31.25;;;14.38;;
4244;SDS011;2136;48.502;9.194;2022-12-16T10:09:05;32.35;;;13.98;;
4244;SDS011;2136;48.502;9.194;2022-12-16T10:12:00;25.85;;;14.40;;
4244;SDS011;2136;48.502;9.194;2022-12-16T10:14:53;26.63;;;15.73;;
4244;SDS011;2136;48.502;9.194;2022-12-16T10:17:47;28.35;;;14.70;;
4244;SDS011;2136;48.502;9.194;2022-12-16T10:20:32;31.38;;;14.43;;
4244;SDS011;2136;48.502;9.194;2022-12-16T10:23:27;27.48;;;13.82;;
4244;SDS011;2136;48.502;9.194;2022-12-16T10:26:19;25.30;;;13.65;;
4244;SDS011;2136;48.502;9.194;2022-12-16T10:29:11;22.80;;;13.27;;
4244;SDS011;2136;48.502;9.194;2022-12-16T10:32:07;28.20;;;14.80;;
4244;SDS011;2136;48.502;9.194;2022-12-16T10:34:59;20.88;;;12.55;;
4244;SDS011;2136;48.502;9.194;2022-12-16T10:37:45;32.67;;;13.15;;
4244;SDS011;2136;48.502;9.194;2022-12-16T10:40:32;31.00;;;15.63;;
4244;SDS011;2136;48.502;9.194;2022-12-16T10:43:17;22.00;;;14.40;;
4244;SDS011;2136;48.502;9.194;2022-12-16T10:46:12;31.70;;;15.20;;
4244;SDS011;2136;48.502;9.194;2022-12-16T10:49:02;22.93;;;13.50;;
4244;SDS011;2136;48.502;9.194;2022-12-16T10:51:46;26.35;;;13.57;;
4244;SDS011;2136;48.502;9.194;2022-12-16T10:54:31;29.75;;;14.05;;
4244;SDS011;2136;48.502;9.194;2022-12-16T10:57:26;26.67;;;17.40;;
4244;SDS011;2136;48.502;9.194;2022-12-16T11:00:18;29.60;;;16.23;;
4244;SDS011;2136;48.502;9.194;2022-12-16T11:03:16;30.50;;;14.30;;
4244;SDS011;2136;48.502;9.194;2022-12-16T11:06:02;23.53;;;14.10;;
4244;SDS011;2136;48.502;9.194;2022-12-16T11:08:47;23.83;;;13.77;;
4244;SDS011;2136;48.502;9.194;2022-12-16T11:11:31;29.47;;;15.37;;
4244;SDS011;2136;48.502;9.194;2022-12-16T11:14:14;24.50;;;14.30;;
4244;SDS011;2136;48.502;9.194;2022-12-16T11:17:11;28.55;;;15.70;;
4244;SDS011;2136;48.502;9.194;2022-12-16T11:20:07;24.30;;;14.27;;
4244;SDS011;2136;48.502;9.194;2022-12-16T11:23:06;24.90;;;14.33;;
4244;SDS011;2136;48.502;9.194;2022-12-16T11:26:05;26.43;;;13.60;;
4244;SDS011;2136;48.502;9.194;2022-12-16T11:29:02;25.80;;;12.68;;
4244;SDS011;2136;48.502;9.194;2022-12-16T11:32:02;22.27;;;12.60;;
4244;SDS011;2136;48.502;9.194;2022-12-16T11:35:04;30.40;;;14.07;;
4244;SDS011;2136;48.502;9.194;2022-12-16T11:37:54;22.07;;;13.23;;
4244;SDS011;2136;48.502;9.194;2022-12-16T11:40:40;19.93;;;12.97;;
4244;SDS011;2136;48.502;9.194;2022-12-16T11:43:25;22.60;;;13.50;;
4244;SDS011;2136;48.502;9.194;2022-12-16T11:46:15;25.00;;;13.40;;
4244;SDS011;2136;48.502;9.194;2022-12-16T11:49:05;25.90;;;13.53;;
4244;SDS011;2136;48.502;9.194;2022-12-16T11:51:53;24.07;;;13.07;;
4244;SDS011;2136;48.502;9.194;2022-12-16T11:54:42;21.75;;;12.95;;
4244;SDS011;2136;48.502;9.194;2022-12-16T11:57:36;32.47;;;13.23;;
4244;SDS011;2136;48.502;9.194;2022-12-16T12:00:25;24.48;;;12.90;;
4244;SDS011;2136;48.502;9.194;2022-12-16T12:03:13;21.37;;;12.87;;
4244;SDS011;2136;48.502;9.194;2022-12-16T12:06:03;27.70;;;15.07;;
4244;SDS011;2136;48.502;9.194;2022-12-16T12:08:56;32.67;;;15.27;;
4244;SDS011;2136;48.502;9.194;2022-12-16T12:11:47;25.93;;;15.37;;
4244;SDS011;2136;48.502;9.194;2022-12-16T12:14:39;22.13;;;13.10;;
4244;SDS011;2136;48.502;9.194;2022-12-16T12:17:31;26.30;;;14.80;;
4244;SDS011;2136;48.502;9.194;2022-12-16T12:20:33;23.92;;;13.60;;
4244;SDS011;2136;48.502;9.194;2022-12-16T12:23:29;21.30;;;12.87;;
4244;SDS011;2136;48.502;9.194;2022-12-16T12:26:21;27.10;;;14.05;;
4244;SDS011;2136;48.502;9.194;2022-12-16T12:29:12;28.60;;;14.20;;
4244;SDS011;2136;48.502;9.194;2022-12-16T12:32:05;23.27;;;14.50;;
4244;SDS011;2136;48.502;9.194;2022-12-16T12:34:57;28.57;;;14.67;;
4244;SDS011;2136;48.502;9.194;2022-12-16T12:37:51;28.13;;;15.68;;
4244;SDS011;2136;48.502;9.194;2022-12-16T12:40:43;20.05;;;12.90;;
4244;SDS011;2136;48.502;9.194;2022-12-16T12:43:40;31.33;;;15.03;;
4244;SDS011;2136;48.502;9.194;2022-12-16T12:46:31;21.67;;;12.30;;
4244;SDS011;2136;48.502;9.194;2022-12-16T12:49:22;18.97;;;12.10;;
4244;SDS011;2136;48.502;9.194;2022-12-16T12:52:17;17.65;;;9.73;;
4244;SDS011;2136;48.502;9.194;2022-12-16T12:55:14;13.23;;;8.95;;
4244;SDS011;2136;48.502;9.194;2022-12-16T12:58:01;15.82;;;8.98;;
4244;SDS011;2136;48.502;9.194;2022-12-16T13:00:51;12.63;;;8.87;;
4244;SDS011;2136;48.502;9.194;2022-12-16T13:03:37;16.90;;;10.63;;
4244;SDS011;2136;48.502;9.194;2022-12-16T13:06:26;18.98;;;9.48;;
4244;SDS011;2136;48.502;9.194;2022-12-16T13:09:28;20.33;;;10.43;;
4244;SDS011;2136;48.502;9.194;2022-12-16T13:12:23;18.08;;;10.23;;
4244;SDS011;2136;48.502;9.194;2022-12-16T13:15:10;20.73;;;9.53;;
4244;SDS011;2136;48.502;9.194;2022-12-16T13:27:43;17.88;;;10.32;;
4244;SDS011;2136;48.502;9.194;2022-12-16T13:30:30;22.53;;;11.13;;
4244;SDS011;2136;48.502;9.194;2022-12-16T13:33:20;20.48;;;12.65;;
4244;SDS011;2136;48.502;9.194;2022-12-16T13:36:07;18.53;;;11.23;;
4244;SDS011;2136;48.502;9.194;2022-12-16T13:38:54;22.48;;;11.32;;
4244;SDS011;2136;48.502;9.194;2022-12-16T13:41:47;19.42;;;11.02;;
4244;SDS011;2136;48.502;9.194;2022-12-16T13:44:58;23.80;;;11.97;;
4244;SDS011;2136;48.502;9.194;2022-12-16T13:48:15;16.50;;;10.18;;
4244;SDS011;2136;48.502;9.194;2022-12-16T13:54:51;17.75;;;10.18;;
4244;SDS011;2136;48.502;9.194;2022-12-16T13:57:46;21.50;;;10.70;;
4244;SDS011;2136;48.502;9.194;2022-12-16T14:00:35;20.30;;;10.90;;
4244;SDS011;2136;48.502;9.194;2022-12-16T14:03:26;17.97;;;10.03;;
4244;SDS011;2136;48.502;9.194;2022-12-16T14:06:22;14.63;;;8.57;;
4244;SDS011;2136;48.502;9.194;2022-12-16T14:09:13;15.10;;;10.17;;
4244;SDS011;2136;48.502;9.194;2022-12-16T14:12:09;16.13;;;10.13;;
4244;SDS011;2136;48.502;9.194;2022-12-16T14:15:04;17.83;;;9.83;;
4244;SDS011;2136;48.502;9.194;2022-12-16T14:17:56;14.02;;;9.57;;
4244;SDS011;2136;48.502;9.194;2022-12-16T14:20:46;17.70;;;10.47;;
4244;SDS011;2136;48.502;9.194;2022-12-16T14:23:34;20.83;;;11.05;;
4244;SDS011;2136;48.502;9.194;2022-12-16T14:26:24;16.50;;;9.77;;
4244;SDS011;2136;48.502;9.194;2022-12-16T14:29:13;17.65;;;10.60;;
4244;SDS011;2136;48.502;9.194;2022-12-16T14:32:06;18.90;;;11.00;;
4244;SDS011;2136;48.502;9.194;2022-12-16T14:35:18;14.47;;;8.77;;
4244;SDS011;2136;48.502;9.194;2022-12-16T14:38:19;22.07;;;11.17;;
4244;SDS011;2136;48.502;9.194;2022-12-16T14:41:06;21.20;;;10.00;;
4244;SDS011;2136;48.502;9.194;2022-12-16T14:44:02;18.58;;;10.00;;
4244;SDS011;2136;48.502;9.194;2022-12-16T14:46:56;16.87;;;9.50;;
4244;SDS011;2136;48.502;9.194;2022-12-16T14:49:47;17.63;;;10.75;;
4244;SDS011;2136;48.502;9.194;2022-12-16T14:52:34;16.98;;;10.80;;
4244;SDS011;2136;48.502;9.194;2022-12-16T14:55:25;18.07;;;10.47;;
4244;SDS011;2136;48.502;9.194;2022-12-16T14:58:12;19.35;;;10.88;;
4244;SDS011;2136;48.502;9.194;2022-12-16T15:00:58;27.75;;;15.70;;
4244;SDS011;2136;48.502;9.194;2022-12-16T15:03:45;21.73;;;11.90;;
4244;SDS011;2136;48.502;9.194;2022-12-16T15:06:31;16.75;;;10.52;;
4244;SDS011;2136;48.502;9.194;2022-12-16T15:09:22;20.73;;;11.30;;
4244;SDS011;2136;48.502;9.194;2022-12-16T15:12:10;18.77;;;10.82;;
4244;SDS011;2136;48.502;9.194;2022-12-16T15:14:57;17.03;;;10.70;;
4244;SDS011;2136;48.502;9.194;2022-12-16T15:17:44;21.60;;;10.07;;
4244;SDS011;2136;48.502;9.194;2022-12-16T15:20:32;13.27;;;8.45;;
4244;SDS011;2136;48.502;9.194;2022-12-16T15:23:20;12.10;;;8.23;;
4244;SDS011;2136;48.502;9.194;2022-12-16T15:26:09;12.65;;;9.02;;
4244;SDS011;2136;48.502;9.194;2022-12-16T15:29:00;12.33;;;8.47;;
4244;SDS011;2136;48.502;9.194;2022-12-16T15:31:45;12.48;;;8.35;;
4244;SDS011;2136;48.502;9.194;2022-12-16T15:34:29;16.27;;;10.38;;
4244;SDS011;2136;48.502;9.194;2022-12-16T15:37:16;16.80;;;10.48;;
4244;SDS011;2136;48.502;9.194;2022-12-16T15:40:03;15.57;;;8.63;;
4244;SDS011;2136;48.502;9.194;2022-12-16T15:43:02;15.00;;;10.30;;
4244;SDS011;2136;48.502;9.194;2022-12-16T15:45:47;22.85;;;10.98;;
4244;SDS011;2136;48.502;9.194;2022-12-16T15:48:32;21.98;;;10.73;;
4244;SDS011;2136;48.502;9.194;2022-12-16T15:51:22;21.20;;;10.93;;
4244;SDS011;2136;48.502;9.194;2022-12-16T15:54:12;15.07;;;8.50;;
4244;SDS011;2136;48.502;9.194;2022-12-16T15:56:59;23.43;;;11.00;;
4244;SDS011;2136;48.502;9.194;2022-12-16T15:59:58;21.38;;;10.80;;
4244;SDS011;2136;48.502;9.194;2022-12-16T16:02:46;18.20;;;10.73;;
4244;SDS011;2136;48.502;9.194;2022-12-16T16:05:31;18.90;;;11.50;;
4244;SDS011;2136;48.502;9.194;2022-12-16T16:08:18;17.48;;;9.07;;
4244;SDS011;2136;48.502;9.194;2022-12-16T16:11:03;17.00;;;9.20;;
4244;SDS011;2136;48.502;9.194;2022-12-16T16:13:47;17.52;;;10.35;;
4244;SDS011;2136;48.502;9.194;2022-12-16T16:16:34;20.90;;;9.63;;
4244;SDS011;2136;48.502;9.194;2022-12-16T16:19:19;16.98;;;10.73;;
4244;SDS011;2136;48.502;9.194;2022-12-16T16:22:08;17.00;;;10.75;;
4244;SDS011;2136;48.502;9.194;2022-12-16T16:24:50;18.80;;;11.13;;
4244;SDS011;2136;48.502;9.194;2022-12-16T16:27:34;15.23;;;9.40;;
4244;SDS011;2136;48.502;9.194;2022-12-16T16:30:19;18.67;;;10.80;;
4244;SDS011;2136;48.502;9.194;2022-12-16T16:33:04;17.80;;;11.43;;
4244;SDS011;2136;48.502;9.194;2022-12-16T16:35:54;25.55;;;12.15;;
4244;SDS011;2136;48.502;9.194;2022-12-16T16:38:38;29.35;;;13.00;;
4244;SDS011;2136;48.502;9.194;2022-12-16T16:41:22;21.10;;;12.27;;